sensor_id;sensor_type;location;lat;lon;timestamp;pressure;altitude;pressure_sealevel;temperature;humidity
77159;BME280;66129;45.890;13.714;2023-02-25T00:01:50;100017.88;;;9.29;90.13
77159;BME280;66129;45.890;13.714;2023-02-25T00:04:15;99950.81;;;8.84;90.28
77159;BME280;66129;45.890;13.714;2023-02-25T00:06:41;99962.00;;;8.92;90.58
77159;BME280;66129;45.890;13.714;2023-02-25T00:09:06;99994.66;;;9.14;90.45
77159;BME280;66129;45.890;13.714;2023-02-25T00:11:35;99968.91;;;8.99;90.53
77159;BME280;66129;45.890;13.714;2023-02-25T00:14:01;99915.56;;;8.61;90.80
77159;BME280;66129;45.890;13.714;2023-02-25T00:16:27;99959.31;;;8.83;90.43
77159;BME280;66129;45.890;13.714;2023-02-25T00:18:56;100000.66;;;9.17;90.62
77159;BME280;66129;45.890;13.714;2023-02-25T00:21:22;99968.13;;;9.04;90.29
77159;BME280;66129;45.890;13.714;2023-02-25T00:23:51;99911.50;;;8.75;90.31
77159;BME280;66129;45.890;13.714;2023-02-25T00:26:18;99963.94;;;9.09;90.95
77159;BME280;66129;45.890;13.714;2023-02-25T00:28:44;99894.56;;;8.80;90.59
77159;BME280;66129;45.890;13.714;2023-02-25T00:31:12;99890.28;;;8.79;90.36
77159;BME280;66129;45.890;13.714;2023-02-25T00:33:39;99937.47;;;9.06;91.29
77159;BME280;66129;45.890;13.714;2023-02-25T00:36:08;99921.16;;;8.95;90.68
77159;BME280;66129;45.890;13.714;2023-02-25T00:38:36;99887.59;;;8.70;91.45
77159;BME280;66129;45.890;13.714;2023-02-25T00:41:09;99959.72;;;9.13;91.59
77159;BME280;66129;45.890;13.714;2023-02-25T00:43:40;99877.50;;;8.80;91.26
77159;BME280;66129;45.890;13.714;2023-02-25T00:46:09;99854.47;;;8.77;90.54
77159;BME280;66129;45.890;13.714;2023-02-25T00:48:36;99895.63;;;8.99;91.04
77159;BME280;66129;45.890;13.714;2023-02-25T00:51:16;99938.50;;;9.21;91.22
77159;BME280;66129;45.890;13.714;2023-02-25T00:53:42;99898.19;;;8.98;90.68
77159;BME280;66129;45.890;13.714;2023-02-25T00:56:13;99929.94;;;9.18;90.71
77159;BME280;66129;45.890;13.714;2023-02-25T00:58:40;99903.31;;;9.01;91.28
77159;BME280;66129;45.890;13.714;2023-02-25T01:01:22;99907.66;;;9.06;91.69
77159;BME280;66129;45.890;13.714;2023-02-25T01:03:49;99872.63;;;9.01;91.07
77159;BME280;66129;45.890;13.714;2023-02-25T01:06:15;99899.47;;;9.37;90.73
77159;BME280;66129;45.890;13.714;2023-02-25T01:08:41;99843.59;;;8.93;91.06
77159;BME280;66129;45.890;13.714;2023-02-25T01:11:16;99858.97;;;8.97;91.42
77159;BME280;66129;45.890;13.714;2023-02-25T01:13:46;99892.28;;;9.05;91.20
77159;BME280;66129;45.890;13.714;2023-02-25T01:16:14;99853.72;;;8.84;91.45
77159;BME280;66129;45.890;13.714;2023-02-25T01:18:40;99873.66;;;9.13;91.10
77159;BME280;66129;45.890;13.714;2023-02-25T01:21:06;99833.41;;;8.96;90.89
77159;BME280;66129;45.890;13.714;2023-02-25T01:23:34;99835.16;;;9.01;90.90
77159;BME280;66129;45.890;13.714;2023-02-25T01:26:02;99886.47;;;9.18;91.77
77159;BME280;66129;45.890;13.714;2023-02-25T01:28:27;99803.25;;;8.67;91.31
77159;BME280;66129;45.890;13.714;2023-02-25T01:30:53;99821.28;;;8.80;91.56
77159;BME280;66129;45.890;13.714;2023-02-25T01:33:18;99811.13;;;8.84;91.52
77159;BME280;66129;45.890;13.714;2023-02-25T01:35:44;99808.69;;;8.95;91.14
77159;BME280;66129;45.890;13.714;2023-02-25T01:38:09;99824.16;;;9.07;90.94
77159;BME280;66129;45.890;13.714;2023-02-25T01:40:35;99783.06;;;8.89;90.72
77159;BME280;66129;45.890;13.714;2023-02-25T01:43:04;99818.16;;;9.05;91.42
77159;BME280;66129;45.890;13.714;2023-02-25T01:45:31;99833.78;;;9.29;91.59
77159;BME280;66129;45.890;13.714;2023-02-25T01:48:04;99770.34;;;8.92;91.59
77159;BME280;66129;45.890;13.714;2023-02-25T01:50:38;99780.63;;;8.98;91.29
77159;BME280;66129;45.890;13.714;2023-02-25T01:53:06;99720.81;;;8.81;91.44
77159;BME280;66129;45.890;13.714;2023-02-25T01:55:32;99786.72;;;9.10;91.48
77159;BME280;66129;45.890;13.714;2023-02-25T01:58:02;99779.84;;;9.08;91.58
77159;BME280;66129;45.890;13.714;2023-02-25T02:00:30;99775.53;;;9.04;91.75
77159;BME280;66129;45.890;13.714;2023-02-25T02:02:57;99763.63;;;9.04;91.58
77159;BME280;66129;45.890;13.714;2023-02-25T02:05:26;99798.81;;;9.28;91.73
77159;BME280;66129;45.890;13.714;2023-02-25T02:07:53;99730.16;;;8.79;91.27
77159;BME280;66129;45.890;13.714;2023-02-25T02:10:18;99739.59;;;8.86;91.02
77159;BME280;66129;45.890;13.714;2023-02-25T02:12:45;99754.91;;;8.83;91.51
77159;BME280;66129;45.890;13.714;2023-02-25T02:15:13;99757.56;;;8.92;91.98
77159;BME280;66129;45.890;13.714;2023-02-25T02:17:47;99734.50;;;8.86;91.68
77159;BME280;66129;45.890;13.714;2023-02-25T02:20:28;99724.19;;;8.80;91.73
77159;BME280;66129;45.890;13.714;2023-02-25T02:23:28;99790.25;;;9.23;91.81
77159;BME280;66129;45.890;13.714;2023-02-25T02:26:28;99761.09;;;9.06;92.21
77159;BME280;66129;45.890;13.714;2023-02-25T02:34:49;99786.78;;;9.19;92.11
77159;BME280;66129;45.890;13.714;2023-02-25T02:37:28;99789.34;;;9.18;92.29
77159;BME280;66129;45.890;13.714;2023-02-25T02:43:04;99749.16;;;9.03;92.04
77159;BME280;66129;45.890;13.714;2023-02-25T02:45:38;99775.84;;;9.37;92.02
77159;BME280;66129;45.890;13.714;2023-02-25T02:48:13;99757.09;;;9.36;91.53
77159;BME280;66129;45.890;13.714;2023-02-25T02:50:59;99721.88;;;9.04;91.62
77159;BME280;66129;45.890;13.714;2023-02-25T02:53:32;99743.22;;;9.07;91.81
77159;BME280;66129;45.890;13.714;2023-02-25T02:56:03;99736.47;;;9.14;91.77
77159;BME280;66129;45.890;13.714;2023-02-25T02:58:41;99724.59;;;9.22;91.04
77159;BME280;66129;45.890;13.714;2023-02-25T03:01:12;99726.31;;;9.23;91.19
77159;BME280;66129;45.890;13.714;2023-02-25T03:03:42;99717.88;;;9.36;90.96
77159;BME280;66129;45.890;13.714;2023-02-25T03:06:15;99674.28;;;9.18;90.62
77159;BME280;66129;45.890;13.714;2023-02-25T03:08:48;99745.34;;;9.61;90.61
77159;BME280;66129;45.890;13.714;2023-02-25T03:11:15;99730.84;;;9.63;90.07
77159;BME280;66129;45.890;13.714;2023-02-25T03:13:42;99719.00;;;9.74;89.56
77159;BME280;66129;45.890;13.714;2023-02-25T03:16:11;99709.63;;;9.71;88.97
77159;BME280;66129;45.890;13.714;2023-02-25T03:19:02;99738.66;;;9.81;89.42
77159;BME280;66129;45.890;13.714;2023-02-25T03:21:37;99690.75;;;9.56;89.09
77159;BME280;66129;45.890;13.714;2023-02-25T03:24:04;99725.84;;;9.73;89.37
77159;BME280;66129;45.890;13.714;2023-02-25T03:26:32;99688.97;;;9.46;89.66
77159;BME280;66129;45.890;13.714;2023-02-25T03:28:59;99717.25;;;9.67;89.80
77159;BME280;66129;45.890;13.714;2023-02-25T03:31:32;99717.19;;;9.56;90.29
77159;BME280;66129;45.890;13.714;2023-02-25T03:36:50;99660.81;;;9.41;89.96
77159;BME280;66129;45.890;13.714;2023-02-25T03:39:20;99714.75;;;9.80;89.43
77159;BME280;66129;45.890;13.714;2023-02-25T03:41:53;99708.81;;;9.81;89.55
77159;BME280;66129;45.890;13.714;2023-02-25T03:44:30;99667.75;;;9.59;89.47
77159;BME280;66129;45.890;13.714;2023-02-25T03:46:56;99649.00;;;9.63;88.63
77159;BME280;66129;45.890;13.714;2023-02-25T03:49:30;99637.91;;;9.59;88.54
77159;BME280;66129;45.890;13.714;2023-02-25T03:51:58;99691.03;;;10.03;87.20
77159;BME280;66129;45.890;13.714;2023-02-25T03:54:26;99648.28;;;9.89;86.58
77159;BME280;66129;45.890;13.714;2023-02-25T03:56:51;99679.88;;;9.97;87.11
77159;BME280;66129;45.890;13.714;2023-02-25T03:59:17;99699.59;;;10.05;87.14
77159;BME280;66129;45.890;13.714;2023-02-25T04:01:45;99673.13;;;10.02;86.53
77159;BME280;66129;45.890;13.714;2023-02-25T04:04:12;99626.09;;;9.87;85.69
77159;BME280;66129;45.890;13.714;2023-02-25T04:06:37;99686.00;;;10.24;86.36
77159;BME280;66129;45.890;13.714;2023-02-25T04:09:03;99641.44;;;9.89;86.51
77159;BME280;66129;45.890;13.714;2023-02-25T04:11:30;99663.72;;;10.01;86.22
77159;BME280;66129;45.890;13.714;2023-02-25T04:13:56;99671.47;;;10.19;84.84
77159;BME280;66129;45.890;13.714;2023-02-25T04:16:21;99659.53;;;10.25;85.30
77159;BME280;66129;45.890;13.714;2023-02-25T04:18:50;99638.16;;;10.13;84.62
77159;BME280;66129;45.890;13.714;2023-02-25T04:21:31;99674.94;;;10.36;84.71
77159;BME280;66129;45.890;13.714;2023-02-25T04:23:57;99694.63;;;10.49;85.06
77159;BME280;66129;45.890;13.714;2023-02-25T04:26:24;99681.78;;;10.35;85.05
77159;BME280;66129;45.890;13.714;2023-02-25T04:28:50;99651.84;;;10.18;84.80
77159;BME280;66129;45.890;13.714;2023-02-25T04:31:15;99624.47;;;10.05;84.91
77159;BME280;66129;45.890;13.714;2023-02-25T04:33:41;99656.97;;;10.19;85.38
77159;BME280;66129;45.890;13.714;2023-02-25T04:36:21;99659.53;;;10.22;85.31
77159;BME280;66129;45.890;13.714;2023-02-25T04:38:47;99648.41;;;10.20;85.70
77159;BME280;66129;45.890;13.714;2023-02-25T04:41:13;99660.41;;;10.23;85.78
77159;BME280;66129;45.890;13.714;2023-02-25T04:43:38;99686.88;;;10.29;85.83
77159;BME280;66129;45.890;13.714;2023-02-25T04:46:03;99632.09;;;9.96;85.84
77159;BME280;66129;45.890;13.714;2023-02-25T04:48:30;99655.19;;;10.00;86.08
77159;BME280;66129;45.890;13.714;2023-02-25T04:51:00;99635.47;;;9.90;86.41
77159;BME280;66129;45.890;13.714;2023-02-25T04:53:25;99682.56;;;10.21;86.40
77159;BME280;66129;45.890;13.714;2023-02-25T04:55:51;99668.88;;;10.08;86.78
77159;BME280;66129;45.890;13.714;2023-02-25T04:58:16;99668.84;;;10.07;86.34
77159;BME280;66129;45.890;13.714;2023-02-25T05:00:42;99681.69;;;10.16;86.59
77159;BME280;66129;45.890;13.714;2023-02-25T05:03:12;99658.59;;;9.99;86.77
77159;BME280;66129;45.890;13.714;2023-02-25T05:05:38;99609.84;;;9.83;86.41
77159;BME280;66129;45.890;13.714;2023-02-25T05:08:03;99677.47;;;10.19;86.64
77159;BME280;66129;45.890;13.714;2023-02-25T05:10:29;99672.28;;;10.07;86.84
77159;BME280;66129;45.890;13.714;2023-02-25T05:12:55;99648.28;;;9.85;87.17
77159;BME280;66129;45.890;13.714;2023-02-25T05:15:20;99618.34;;;9.70;86.77
77159;BME280;66129;45.890;13.714;2023-02-25T05:17:46;99664.50;;;9.91;86.88
77159;BME280;66129;45.890;13.714;2023-02-25T05:20:13;99691.06;;;10.11;87.15
77159;BME280;66129;45.890;13.714;2023-02-25T05:22:40;99608.03;;;9.58;87.27
77159;BME280;66129;45.890;13.714;2023-02-25T05:25:07;99690.97;;;9.96;87.12
77159;BME280;66129;45.890;13.714;2023-02-25T05:27:33;99656.81;;;9.91;86.86
77159;BME280;66129;45.890;13.714;2023-02-25T05:29:59;99634.53;;;9.68;87.02
77159;BME280;66129;45.890;13.714;2023-02-25T05:32:29;99638.78;;;9.64;87.42
77159;BME280;66129;45.890;13.714;2023-02-25T05:34:56;99665.25;;;9.75;87.84
77159;BME280;66129;45.890;13.714;2023-02-25T05:37:21;99665.25;;;9.69;87.93
77159;BME280;66129;45.890;13.714;2023-02-25T05:39:50;99693.47;;;9.84;87.73
77159;BME280;66129;45.890;13.714;2023-02-25T05:42:15;99702.00;;;9.86;88.02
77159;BME280;66129;45.890;13.714;2023-02-25T05:44:41;99637.88;;;9.52;87.63
77159;BME280;66129;45.890;13.714;2023-02-25T05:47:06;99644.75;;;9.65;87.03
77159;BME280;66129;45.890;13.714;2023-02-25T05:49:32;99636.28;;;9.75;86.77
77159;BME280;66129;45.890;13.714;2023-02-25T05:51:58;99672.19;;;9.98;86.48
77159;BME280;66129;45.890;13.714;2023-02-25T05:54:23;99640.53;;;9.71;86.76
77159;BME280;66129;45.890;13.714;2023-02-25T05:56:52;99649.91;;;9.72;86.40
77159;BME280;66129;45.890;13.714;2023-02-25T05:59:18;99691.88;;;10.02;86.37
77159;BME280;66129;45.890;13.714;2023-02-25T06:01:43;99647.38;;;9.80;86.33
77159;BME280;66129;45.890;13.714;2023-02-25T06:04:09;99655.91;;;9.80;86.12
77159;BME280;66129;45.890;13.714;2023-02-25T06:06:35;99673.88;;;9.88;86.44
77159;BME280;66129;45.890;13.714;2023-02-25T06:09:02;99703.03;;;10.10;86.10
77159;BME280;66129;45.890;13.714;2023-02-25T06:11:30;99705.56;;;10.07;86.34
77159;BME280;66129;45.890;13.714;2023-02-25T06:13:58;99714.09;;;10.06;86.42
77159;BME280;66129;45.890;13.714;2023-02-25T06:16:57;99637.91;;;9.62;86.64
77159;BME280;66129;45.890;13.714;2023-02-25T06:19:23;99679.84;;;9.89;86.62
77159;BME280;66129;45.890;13.714;2023-02-25T06:21:53;99665.28;;;9.77;86.86
77159;BME280;66129;45.890;13.714;2023-02-25T06:24:22;99654.13;;;9.61;87.41
77159;BME280;66129;45.890;13.714;2023-02-25T06:26:49;99636.94;;;9.41;85.26
77159;BME280;66129;45.890;13.714;2023-02-25T06:29:15;99646.31;;;9.42;86.08
77159;BME280;66129;45.890;13.714;2023-02-25T06:31:40;99666.81;;;9.45;86.53
77159;BME280;66129;45.890;13.714;2023-02-25T06:34:06;99698.44;;;9.57;86.67
77159;BME280;66129;45.890;13.714;2023-02-25T06:36:32;99662.44;;;9.30;87.79
77159;BME280;66129;45.890;13.714;2023-02-25T06:38:58;99730.03;;;9.67;85.80
77159;BME280;66129;45.890;13.714;2023-02-25T06:41:26;99672.66;;;9.29;85.33
77159;BME280;66129;45.890;13.714;2023-02-25T06:43:52;99672.53;;;9.15;86.60
77159;BME280;66129;45.890;13.714;2023-02-25T06:46:23;99661.22;;;8.85;88.15
77159;BME280;66129;45.890;13.714;2023-02-25T06:51:57;99661.09;;;8.70;88.22
77159;BME280;66129;45.890;13.714;2023-02-25T06:54:23;99699.69;;;9.00;89.17
77159;BME280;66129;45.890;13.714;2023-02-25T06:56:54;99642.38;;;8.73;88.45
77159;BME280;66129;45.890;13.714;2023-02-25T06:59:26;99699.75;;;9.06;89.37
77159;BME280;66129;45.890;13.714;2023-02-25T07:01:51;99719.47;;;9.20;89.22
77159;BME280;66129;45.890;13.714;2023-02-25T07:04:18;99693.84;;;9.13;87.94
77159;BME280;66129;45.890;13.714;2023-02-25T07:06:44;99717.84;;;9.27;90.45
77159;BME280;66129;45.890;13.714;2023-02-25T07:09:20;99652.72;;;8.86;89.53
77159;BME280;66129;45.890;13.714;2023-02-25T07:15:07;99682.75;;;9.11;90.43
77159;BME280;66129;45.890;13.714;2023-02-25T07:17:33;99730.69;;;9.37;90.54
77159;BME280;66129;45.890;13.714;2023-02-25T07:20:19;99640.03;;;8.95;90.57
77159;BME280;66129;45.890;13.714;2023-02-25T07:23:42;99664.88;;;9.15;90.41
77159;BME280;66129;45.890;13.714;2023-02-25T07:26:16;99682.88;;;9.27;90.36
77159;BME280;66129;45.890;13.714;2023-02-25T07:28:44;99672.69;;;9.33;90.16
77159;BME280;66129;45.890;13.714;2023-02-25T07:34:40;99687.91;;;9.17;88.99
77159;BME280;66129;45.890;13.714;2023-02-25T07:37:05;99645.03;;;8.84;89.13
77159;BME280;66129;45.890;13.714;2023-02-25T07:39:34;99680.22;;;9.15;90.40
77159;BME280;66129;45.890;13.714;2023-02-25T07:42:05;99684.47;;;9.16;90.97
77159;BME280;66129;45.890;13.714;2023-02-25T07:44:51;99681.09;;;9.20;90.66
77159;BME280;66129;45.890;13.714;2023-02-25T07:47:16;99670.84;;;9.16;90.42
77159;BME280;66129;45.890;13.714;2023-02-25T07:49:44;99678.66;;;9.32;90.13
77159;BME280;66129;45.890;13.714;2023-02-25T07:52:19;99621.41;;;9.09;88.37
77159;BME280;66129;45.890;13.714;2023-02-25T07:55:05;99705.19;;;9.48;87.78
77159;BME280;66129;45.890;13.714;2023-02-25T07:57:31;99695.81;;;9.50;89.33
77159;BME280;66129;45.890;13.714;2023-02-25T08:00:02;99696.72;;;9.56;89.60
77159;BME280;66129;45.890;13.714;2023-02-25T08:02:31;99624.91;;;9.25;89.58
77159;BME280;66129;45.890;13.714;2023-02-25T08:04:56;99667.75;;;9.60;89.59
77159;BME280;66129;45.890;13.714;2023-02-25T08:07:25;99659.19;;;9.54;89.38
77159;BME280;66129;45.890;13.714;2023-02-25T08:09:53;99653.19;;;9.53;89.09
77159;BME280;66129;45.890;13.714;2023-02-25T08:12:18;99678.88;;;9.70;89.15
77159;BME280;66129;45.890;13.714;2023-02-25T08:14:44;99649.78;;;9.51;89.61
77159;BME280;66129;45.890;13.714;2023-02-25T08:17:10;99615.59;;;9.36;89.63
77159;BME280;66129;45.890;13.714;2023-02-25T08:19:37;99662.59;;;9.53;89.42
77159;BME280;66129;45.890;13.714;2023-02-25T08:22:03;99655.78;;;9.56;89.35
77159;BME280;66129;45.890;13.714;2023-02-25T08:24:32;99703.69;;;9.80;89.93
77159;BME280;66129;45.890;13.714;2023-02-25T08:27:00;99676.31;;;9.67;90.13
77159;BME280;66129;45.890;13.714;2023-02-25T08:29:26;99617.31;;;9.38;90.08
77159;BME280;66129;45.890;13.714;2023-02-25T08:31:54;99659.28;;;9.67;89.96
77159;BME280;66129;45.890;13.714;2023-02-25T08:34:23;99618.19;;;9.46;89.50
77159;BME280;66129;45.890;13.714;2023-02-25T08:36:54;99660.13;;;9.75;89.51
77159;BME280;66129;45.890;13.714;2023-02-25T08:39:19;99679.84;;;9.88;90.08
77159;BME280;66129;45.890;13.714;2023-02-25T08:41:45;99625.91;;;9.48;90.16
77159;BME280;66129;45.890;13.714;2023-02-25T08:44:11;99614.81;;;9.49;90.21
77159;BME280;66129;45.890;13.714;2023-02-25T08:46:36;99611.41;;;9.51;89.85
77159;BME280;66129;45.890;13.714;2023-02-25T08:49:03;99608.84;;;9.47;89.29
77159;BME280;66129;45.890;13.714;2023-02-25T08:51:30;99643.06;;;9.68;89.63
77159;BME280;66129;45.890;13.714;2023-02-25T08:54:02;99622.53;;;9.61;89.19
77159;BME280;66129;45.890;13.714;2023-02-25T08:56:28;99670.56;;;10.06;88.48
77159;BME280;66129;45.890;13.714;2023-02-25T08:58:54;99661.19;;;10.04;88.07
77159;BME280;66129;45.890;13.714;2023-02-25T09:01:20;99597.03;;;9.76;87.89
77159;BME280;66129;45.890;13.714;2023-02-25T09:03:51;99644.09;;;10.04;87.77
77159;BME280;66129;45.890;13.714;2023-02-25T09:06:27;99632.94;;;9.96;87.90
77159;BME280;66129;45.890;13.714;2023-02-25T09:08:53;99635.59;;;10.04;88.46
77159;BME280;66129;45.890;13.714;2023-02-25T09:11:22;99606.56;;;10.02;87.10
77159;BME280;66129;45.890;13.714;2023-02-25T09:13:48;99605.75;;;10.24;86.59
77159;BME280;66129;45.890;13.714;2023-02-25T09:16:14;99647.66;;;10.60;85.62
77159;BME280;66129;45.890;13.714;2023-02-25T09:18:47;99648.53;;;10.71;85.21
77159;BME280;66129;45.890;13.714;2023-02-25T09:21:14;99650.25;;;10.84;84.40
77159;BME280;66129;45.890;13.714;2023-02-25T09:23:40;99616.09;;;10.73;84.12
77159;BME280;66129;45.890;13.714;2023-02-25T09:26:06;99601.56;;;10.78;83.82
77159;BME280;66129;45.890;13.714;2023-02-25T09:28:33;99593.00;;;11.03;82.82
77159;BME280;66129;45.890;13.714;2023-02-25T09:30:58;99598.06;;;11.36;81.67
77159;BME280;66129;45.890;13.714;2023-02-25T09:33:25;99640.81;;;11.67;80.98
77159;BME280;66129;45.890;13.714;2023-02-25T09:35:51;99633.09;;;11.62;80.95
77159;BME280;66129;45.890;13.714;2023-02-25T09:38:17;99620.28;;;11.55;81.02
77159;BME280;66129;45.890;13.714;2023-02-25T09:40:48;99617.72;;;11.43;81.20
77159;BME280;66129;45.890;13.714;2023-02-25T09:43:24;99605.78;;;11.33;81.43
77159;BME280;66129;45.890;13.714;2023-02-25T09:45:52;99607.50;;;11.34;81.37
77159;BME280;66129;45.890;13.714;2023-02-25T09:48:31;99638.22;;;11.62;81.27
77159;BME280;66129;45.890;13.714;2023-02-25T09:51:22;99581.81;;;11.26;80.78
77159;BME280;66129;45.890;13.714;2023-02-25T09:53:50;99638.25;;;11.64;81.36
77159;BME280;66129;45.890;13.714;2023-02-25T09:56:18;99595.47;;;11.48;80.34
77159;BME280;66129;45.890;13.714;2023-02-25T09:58:51;99610.84;;;11.64;80.61
77159;BME280;66129;45.890;13.714;2023-02-25T10:01:32;99628.78;;;11.72;79.55
77159;BME280;66129;45.890;13.714;2023-02-25T10:06:52;99598.84;;;11.75;79.15
77159;BME280;66129;45.890;13.714;2023-02-25T10:09:23;99621.00;;;11.94;79.31
77159;BME280;66129;45.890;13.714;2023-02-25T10:15:11;99620.97;;;12.02;79.38
77159;BME280;66129;45.890;13.714;2023-02-25T10:23:23;99550.13;;;11.56;78.84
77159;BME280;66129;45.890;13.714;2023-02-25T10:26:03;99563.81;;;11.64;79.31
77159;BME280;66129;45.890;13.714;2023-02-25T10:28:33;99549.28;;;11.60;80.31
77159;BME280;66129;45.890;13.714;2023-02-25T10:31:11;99571.38;;;11.91;78.51
77159;BME280;66129;45.890;13.714;2023-02-25T10:33:56;99597.81;;;12.12;78.96
77159;BME280;66129;45.890;13.714;2023-02-25T10:36:42;99556.84;;;11.85;79.15
77159;BME280;66129;45.890;13.714;2023-02-25T10:39:27;99567.94;;;11.92;80.02
77159;BME280;66129;45.890;13.714;2023-02-25T10:41:59;99544.03;;;11.81;79.24
77159;BME280;66129;45.890;13.714;2023-02-25T10:44:24;99564.50;;;11.96;78.78
77159;BME280;66129;45.890;13.714;2023-02-25T10:50:21;99565.28;;;12.14;79.34
77159;BME280;66129;45.890;13.714;2023-02-25T10:53:23;99561.78;;;12.19;79.42
77159;BME280;66129;45.890;13.714;2023-02-25T10:55:50;99493.56;;;11.78;79.67
77159;BME280;66129;45.890;13.714;2023-02-25T11:01:20;99566.00;;;12.29;79.13
77159;BME280;66129;45.890;13.714;2023-02-25T11:03:57;99565.13;;;12.30;79.75
77159;BME280;66129;45.890;13.714;2023-02-25T11:08:54;99517.28;;;12.16;78.75
77159;BME280;66129;45.890;13.714;2023-02-25T11:15:47;99516.22;;;12.42;78.32
77159;BME280;66129;45.890;13.714;2023-02-25T11:18:40;99510.16;;;12.52;78.23
77159;BME280;66129;45.890;13.714;2023-02-25T11:21:36;99510.13;;;12.54;77.24
77159;BME280;66129;45.890;13.714;2023-02-25T11:27:52;99493.94;;;12.44;76.69
77159;BME280;66129;45.890;13.714;2023-02-25T11:30:43;99458.97;;;12.28;77.68
77159;BME280;66129;45.890;13.714;2023-02-25T11:33:32;99438.41;;;12.27;77.60
77159;BME280;66129;45.890;13.714;2023-02-25T11:35:59;99474.25;;;12.43;77.35
77159;BME280;66129;45.890;13.714;2023-02-25T11:38:37;99483.63;;;12.47;77.11
77159;BME280;66129;45.890;13.714;2023-02-25T11:41:03;99499.72;;;12.70;77.69
77159;BME280;66129;45.890;13.714;2023-02-25T11:43:39;99449.41;;;12.44;77.72
77159;BME280;66129;45.890;13.714;2023-02-25T11:46:18;99446.78;;;12.48;77.69
77159;BME280;66129;45.890;13.714;2023-02-25T11:50:11;99456.94;;;12.60;78.05
77159;BME280;66129;45.890;13.714;2023-02-25T11:53:03;99444.16;;;12.57;77.44
77159;BME280;66129;45.890;13.714;2023-02-25T11:55:07;99484.16;;;12.81;76.66
77159;BME280;66129;45.890;13.714;2023-02-25T12:11:45;99453.50;;;12.61;76.18
77159;BME280;66129;45.890;13.714;2023-02-25T12:17:36;99417.03;;;12.26;76.25
77159;BME280;66129;45.890;13.714;2023-02-25T12:23:13;99457.13;;;12.42;75.52
77159;BME280;66129;45.890;13.714;2023-02-25T12:26:03;99456.34;;;12.33;76.90
77159;BME280;66129;45.890;13.714;2023-02-25T12:39:45;99448.72;;;12.25;76.55
77159;BME280;66129;45.890;13.714;2023-02-25T12:45:23;99417.97;;;12.14;75.25
77159;BME280;66129;45.890;13.714;2023-02-25T12:59:12;99447.09;;;12.14;77.28
77159;BME280;66129;45.890;13.714;2023-02-25T13:04:44;99460.66;;;12.31;75.93
77159;BME280;66129;45.890;13.714;2023-02-25T13:07:42;99406.84;;;12.15;78.38
77159;BME280;66129;45.890;13.714;2023-02-25T13:10:51;99451.91;;;12.51;77.18
77159;BME280;66129;45.890;13.714;2023-02-25T13:13:47;99404.16;;;12.25;75.88
77159;BME280;66129;45.890;13.714;2023-02-25T13:16:38;99446.78;;;12.48;76.35
77159;BME280;66129;45.890;13.714;2023-02-25T13:25:02;99440.53;;;12.73;75.45
77159;BME280;66129;45.890;13.714;2023-02-25T13:33:11;99359.28;;;12.59;75.92
77159;BME280;66129;45.890;13.714;2023-02-25T13:41:03;99411.53;;;12.59;75.26
77159;BME280;66129;45.890;13.714;2023-02-25T13:52:02;99419.66;;;13.03;75.63
77159;BME280;66129;45.890;13.714;2023-02-25T13:55:15;99412.88;;;12.96;74.38
77159;BME280;66129;45.890;13.714;2023-02-25T14:11:28;99424.06;;;12.94;74.63
77159;BME280;66129;45.890;13.714;2023-02-25T14:22:33;99375.53;;;12.59;74.31
77159;BME280;66129;45.890;13.714;2023-02-25T14:25:07;99429.19;;;12.97;74.33
77159;BME280;66129;45.890;13.714;2023-02-25T14:42:00;99408.53;;;13.03;72.58
77159;BME280;66129;45.890;13.714;2023-02-25T14:47:06;99334.44;;;12.58;71.55
77159;BME280;66129;45.890;13.714;2023-02-25T14:49:53;99374.56;;;12.74;72.73
77159;BME280;66129;45.890;13.714;2023-02-25T15:00:43;99327.00;;;12.32;73.85
77159;BME280;66129;45.890;13.714;2023-02-25T15:06:37;99364.47;;;12.57;73.56
77159;BME280;66129;45.890;13.714;2023-02-25T15:11:43;99326.16;;;12.35;73.71
77159;BME280;66129;45.890;13.714;2023-02-25T15:20:17;99355.81;;;12.61;74.95
77159;BME280;66129;45.890;13.714;2023-02-25T15:23:12;99389.09;;;12.76;74.92
77159;BME280;66129;45.890;13.714;2023-02-25T15:33:35;99389.34;;;12.52;75.32
77159;BME280;66129;45.890;13.714;2023-02-25T15:38:41;99409.91;;;12.52;75.63
77159;BME280;66129;45.890;13.714;2023-02-25T15:48:45;99391.31;;;12.25;76.43
77159;BME280;66129;45.890;13.714;2023-02-25T15:51:48;99412.63;;;12.39;75.88
77159;BME280;66129;45.890;13.714;2023-02-25T15:57:02;99362.38;;;12.07;76.60
77159;BME280;66129;45.890;13.714;2023-02-25T15:59:46;99372.66;;;12.07;76.87
77159;BME280;66129;45.890;13.714;2023-02-25T16:04:58;99365.09;;;11.87;77.53
77159;BME280;66129;45.890;13.714;2023-02-25T16:07:33;99411.13;;;12.13;77.46
77159;BME280;66129;45.890;13.714;2023-02-25T16:12:42;99371.13;;;11.88;77.59
77159;BME280;66129;45.890;13.714;2023-02-25T16:15:31;99418.03;;;12.06;77.78
77159;BME280;66129;45.890;13.714;2023-02-25T16:18:06;99355.03;;;11.68;78.21
77159;BME280;66129;45.890;13.714;2023-02-25T16:20:43;99418.09;;;12.00;78.39
77159;BME280;66129;45.890;13.714;2023-02-25T16:23:12;99397.69;;;11.82;78.56
77159;BME280;66129;45.890;13.714;2023-02-25T16:25:58;99421.56;;;11.93;78.48
77159;BME280;66129;45.890;13.714;2023-02-25T16:28:54;99419.00;;;11.90;78.71
77159;BME280;66129;45.890;13.714;2023-02-25T16:31:26;99398.66;;;11.66;79.48
77159;BME280;66129;45.890;13.714;2023-02-25T16:39:43;99395.28;;;11.57;79.99
77159;BME280;66129;45.890;13.714;2023-02-25T16:42:14;99420.94;;;11.63;80.46
77159;BME280;66129;45.890;13.714;2023-02-25T16:44:44;99414.13;;;11.56;80.42
77159;BME280;66129;45.890;13.714;2023-02-25T16:47:30;99421.78;;;11.57;80.47
77159;BME280;66129;45.890;13.714;2023-02-25T16:49:59;99426.94;;;11.56;80.23
77159;BME280;66129;45.890;13.714;2023-02-25T16:52:34;99423.53;;;11.52;81.08
77159;BME280;66129;45.890;13.714;2023-02-25T16:55:04;99386.03;;;11.26;81.64